Anderson Regional Airport


Codes: KAND/AND
Name: Anderson Regional Airport
City: Anderson
Country: United States
Elevation: 782 ft.
Wikipedia:

Photos at Anderson Regional Airport


   Photos courtesy of SpottingLog. You can add your own sightings and photos by signing up for a free trial today.



No photos found.

Weather at Anderson Regional Airport


Time (UTC)DescriptionTempratureWindCloud coverageVisibilityPressureHumidity
21-Jun-2024 12:00Clear Sky20°C4 mph, NE0%10000m1025hPa88%
21-Jun-2024 15:00Clear Sky23°C4 mph, E2%10000m1025hPa74%
21-Jun-2024 18:00Clear Sky29°C7 mph, E2%10000m1022hPa51%
21-Jun-2024 21:00Clear Sky34°C7 mph, E0%10000m1018hPa29%
22-Jun-2024 00:00Clear Sky30°C4 mph, SE0%10000m1018hPa43%
22-Jun-2024 03:00Few Clouds24°C4 mph, E22%10000m1020hPa52%
22-Jun-2024 06:00Few Clouds21°C0 mph, N21%10000m1020hPa75%
22-Jun-2024 09:00Clear Sky20°C2 mph, NE1%10000m1020hPa85%
22-Jun-2024 12:00Clear Sky23°C2 mph, NE1%10000m1021hPa73%
22-Jun-2024 15:00Clear Sky31°C2 mph, E0%10000m1020hPa49%
22-Jun-2024 18:00Clear Sky35°C4 mph, SE0%10000m1017hPa31%
22-Jun-2024 21:00Clear Sky36°C4 mph, SE0%10000m1014hPa28%
23-Jun-2024 00:00Clear Sky30°C7 mph, S2%10000m1014hPa51%
23-Jun-2024 03:00Clear Sky25°C4 mph, S7%10000m1015hPa70%
23-Jun-2024 06:00Clear Sky23°C4 mph, SW7%10000m1015hPa81%
23-Jun-2024 09:00Light Rain22°C4 mph, SW63%10000m1015hPa94%
23-Jun-2024 12:00Light Rain23°C2 mph, SW62%10000m1015hPa90%
23-Jun-2024 15:00Broken Clouds31°C7 mph, SW80%10000m1014hPa53%
23-Jun-2024 18:00Overcast Clouds35°C11 mph, W89%10000m1012hPa33%
23-Jun-2024 21:00Overcast Clouds35°C11 mph, NW100%10000m1010hPa32%
24-Jun-2024 00:00Overcast Clouds31°C7 mph, S89%10000m1009hPa44%
24-Jun-2024 03:00Overcast Clouds26°C4 mph, SW88%10000m1010hPa58%
24-Jun-2024 06:00Broken Clouds24°C2 mph, SW72%10000m1010hPa69%
24-Jun-2024 09:00Overcast Clouds23°C4 mph, W100%10000m1010hPa67%
24-Jun-2024 12:00Overcast Clouds25°C7 mph, NW99%10000m1011hPa62%
24-Jun-2024 15:00Scattered Clouds34°C11 mph, NW41%10000m1011hPa40%
24-Jun-2024 18:00Few Clouds37°C9 mph, W21%10000m1009hPa27%
24-Jun-2024 21:00Clear Sky39°C11 mph, NW2%10000m1007hPa20%
25-Jun-2024 00:00Clear Sky33°C9 mph, NE4%10000m1009hPa35%
25-Jun-2024 03:00Scattered Clouds26°C4 mph, N40%10000m1011hPa53%
25-Jun-2024 06:00Few Clouds24°C7 mph, N20%10000m1012hPa60%
25-Jun-2024 09:00Clear Sky22°C4 mph, NE0%10000m1013hPa65%
25-Jun-2024 12:00Clear Sky24°C2 mph, N0%10000m1014hPa59%
25-Jun-2024 15:00Clear Sky33°C2 mph, SE0%10000m1014hPa34%
25-Jun-2024 18:00Clear Sky37°C4 mph, W0%10000m1012hPa26%
25-Jun-2024 21:00Scattered Clouds38°C2 mph, W50%10000m1010hPa23%
26-Jun-2024 00:00Broken Clouds34°C2 mph, SE66%10000m1009hPa34%
26-Jun-2024 03:00Clear Sky27°C4 mph, S3%10000m1010hPa42%
26-Jun-2024 06:00Scattered Clouds27°C2 mph, S35%10000m1011hPa45%
26-Jun-2024 09:00Overcast Clouds24°C4 mph, SW100%10000m1010hPa57%